Wednesday, July 27, 2016, 1:07 PM EDT

KPOU, Poughkeepsie Dutchess Cty

Location: Wappingers Falls, NY, United States Lat: 41.633
Local Time: 1:07 PM EDT (17:07 GMT) Lon: -73.883
Time Zone: US/Eastern Elev: 167 ft

Show me the last for .
Show Decoded

2016-07-27 12:53 METAR KPOU 271653Z 24009KT 10SM CLR 32/17 A2994 RMK AO2 SLP135 T03170167 =
2016-07-27 11:53 METAR KPOU 271553Z 11003KT 10SM CLR 29/17 A2994 RMK AO2 SLP135 T02940167 =
2016-07-27 10:53 METAR KPOU 271453Z 06004KT 10SM CLR 28/17 A2995 RMK AO2 SLP139 T02830172 58006 =
2016-07-27 09:53 METAR KPOU 271353Z 00000KT 10SM CLR 26/17 A2996 RMK AO2 SLP141 T02610172 =
2016-07-27 08:53 METAR KPOU 271253Z 00000KT 10SM CLR 24/18 A2997 RMK AO2 SLP144 T02440178 =
2016-07-27 07:53 METAR KPOU 271153Z 00000KT 10SM CLR 21/18 A2997 RMK AO2 SLP145 T02110178 10217
                 20167 53009 =
2016-07-27 06:53 METAR KPOU 271053Z AUTO 00000KT 10SM CLR 18/16 A2996 RMK AO2 SLP142 T01830161 =
2016-07-27 05:53 METAR KPOU 270953Z 00000KT 10SM CLR 17/15 A2995 RMK AO2 SLP139 T01720150 =
2016-07-27 04:53 METAR KPOU 270853Z 00000KT 9SM CLR 17/16 A2995 RMK AO2 SLP136 T01720156 53001 =
2016-07-27 03:53 METAR KPOU 270753Z 00000KT 10SM CLR 18/16 A2994 RMK AO2 SLP134 T01780161 =
2016-07-27 02:53 METAR KPOU 270653Z 00000KT 10SM CLR 18/17 A2994 RMK AO2 SLP135 T01830167 =
2016-07-27 01:53 METAR KPOU 270553Z 00000KT 10SM CLR 19/17 A2994 RMK AO2 SLP135 T01940172 10289
                 20194 51007 =
2016-07-27 00:53 METAR KPOU 270453Z 00000KT 10SM CLR 20/17 A2994 RMK AO2 SLP135 T02000172
                 403280200 =
2016-07-26 23:53 METAR KPOU 270353Z 00000KT 10SM CLR 21/18 A2993 RMK AO2 SLP131 T02110178 =
2016-07-26 22:53 METAR KPOU 270253Z 00000KT 10SM CLR 22/18 A2992 RMK AO2 SLP127 T02220178 51017 =
2016-07-26 21:53 METAR KPOU 270153Z 00000KT 10SM CLR 23/18 A2992 RMK AO2 SLP126 T02280178 =
2016-07-26 20:53 METAR KPOU 270053Z AUTO 27003KT 10SM CLR 27/17 A2990 RMK AO2 SLP119 T02670167 =
2016-07-26 19:53 METAR KPOU 262353Z 32005KT 10SM CLR 29/16 A2987 RMK AO2 SLP110 T02890161 10328
                 20289 53002 =
2016-07-26 18:53 METAR KPOU 262253Z 31005KT 10SM CLR 31/16 A2987 RMK AO2 SLP110 T03110156 =
2016-07-26 17:53 METAR KPOU 262153Z 33008KT 10SM CLR 32/15 A2986 RMK AO2 SLP108 T03170150 =
2016-07-26 16:53 METAR KPOU 262053Z 34008KT 10SM CLR 32/17 A2986 RMK AO2 SLP109 T03220167 58003 =
2016-07-26 15:53 METAR KPOU 261953Z 33008KT 10SM SCT060 32/16 A2987 RMK AO2 SLP110 T03220156 =
2016-07-26 14:53 METAR KPOU 261853Z 34010KT 10SM CLR 32/16 A2987 RMK AO2 SLP110 T03220161 =
2016-07-26 13:53 METAR KPOU 261753Z 30008KT 10SM SCT060 32/17 A2987 RMK AO2 SLP111 T03170172
                 10317 20239 56006 =

Support USWX by starting your Amazon purchase here.